Time;durP1;ratioP1;P1;durP2;ratioP2;P2;SDS_P1;SDS_P2;PMS_P1;PMS_P2;Temp;Humidity;BMP_temperature;BMP_pressure;BME280_temperature;BME280_humidity;BME280_pressure;Samples;Min_cycle;Max_cycle;Signal;HPM_P1;HPM_P2
2023/10/25 00:00:00;;;;;;;21.60;17.10;;;;;;;;;;104085;1289;545088;-78
2023/10/25 00:03:38;;;;;;;20.60;16.50;;;;;;;;;;103703;1289;545162;-77
2023/10/25 00:07:17;;;;;;;20.80;16.70;;;;;;;;;;103921;1289;544772;-77
2023/10/25 00:11:07;;;;;;;20.40;16.30;;;;;;;;;;103736;1291;545350;-77
2023/10/25 00:14:30;;;;;;;19.20;14.80;;;;;;;;;;103765;1289;545393;-80
2023/10/25 00:18:13;;;;;;;17.90;14.40;;;;;;;;;;103581;1292;547984;-80
2023/10/25 00:21:50;;;;;;;18.70;14.60;;;;;;;;;;103596;1292;547845;-77
2023/10/25 00:25:28;;;;;;;19.10;13.00;;;;;;;;;;103310;1294;547962;-78
2023/10/25 00:28:58;;;;;;;17.50;12.60;;;;;;;;;;103794;1289;544726;-79
2023/10/25 00:32:35;;;;;;;17.40;13.10;;;;;;;;;;103711;1292;545706;-77
2023/10/25 00:36:20;;;;;;;17.60;13.20;;;;;;;;;;103657;1292;548328;-79
2023/10/25 00:39:56;;;;;;;15.60;12.00;;;;;;;;;;103691;1292;545242;-77
2023/10/25 00:43:30;;;;;;;14.40;10.90;;;;;;;;;;103756;1294;545407;-75
2023/10/25 00:47:13;;;;;;;13.10;9.80;;;;;;;;;;103674;1290;547811;-76
2023/10/25 00:50:45;;;;;;;13.00;9.70;;;;;;;;;;103755;1289;545290;-74
2023/10/25 00:54:18;;;;;;;11.90;8.80;;;;;;;;;;103916;1289;545525;-76
2023/10/25 00:58:01;;;;;;;12.80;9.20;;;;;;;;;;103731;1295;545495;-76
2023/10/25 01:01:40;;;;;;;14.10;9.10;;;;;;;;;;103702;1290;544881;-77
2023/10/25 01:05:16;;;;;;;12.20;8.70;;;;;;;;;;103849;1288;545621;-77
2023/10/25 01:08:59;;;;;;;13.50;9.50;;;;;;;;;;103626;1290;547840;-77
2023/10/25 01:12:30;;;;;;;12.30;8.70;;;;;;;;;;103741;1290;546009;-77
2023/10/25 01:16:08;;;;;;;12.50;8.80;;;;;;;;;;103424;1292;545578;-78
2023/10/25 01:19:51;;;;;;;13.40;8.40;;;;;;;;;;103590;1292;547946;-76
2023/10/25 01:23:24;;;;;;;12.80;7.80;;;;;;;;;;103710;1289;545161;-76
2023/10/25 01:27:01;;;;;;;11.10;7.20;;;;;;;;;;103943;1288;545929;-75
2023/10/25 01:30:39;;;;;;;10.60;7.00;;;;;;;;;;103756;1289;544768;-75
2023/10/25 01:34:21;;;;;;;10.50;6.30;;;;;;;;;;103639;1291;547793;-76
2023/10/25 01:37:54;;;;;;;11.30;7.20;;;;;;;;;;103323;1297;544910;-76
2023/10/25 01:41:27;;;;;;;10.10;6.60;;;;;;;;;;104105;1288;546231;-76
2023/10/25 01:45:08;;;;;;;11.60;6.70;;;;;;;;;;103798;1289;545863;-75
2023/10/25 01:48:43;;;;;;;12.00;7.00;;;;;;;;;;103800;1292;544921;-77
2023/10/25 01:52:26;;;;;;;11.90;7.60;;;;;;;;;;104177;1287;544620;-76
2023/10/25 01:56:04;;;;;;;11.50;7.40;;;;;;;;;;103689;1290;544749;-77
2023/10/25 01:59:46;;;;;;;11.10;7.40;;;;;;;;;;103640;1290;547786;-77
2023/10/25 02:03:18;;;;;;;11.30;7.90;;;;;;;;;;103606;1291;545054;-77
2023/10/25 02:07:02;;;;;;;10.70;7.20;;;;;;;;;;103630;1292;548892;-76
2023/10/25 02:10:34;;;;;;;11.70;8.40;;;;;;;;;;103746;1293;545414;-77
2023/10/25 02:14:10;;;;;;;12.20;8.20;;;;;;;;;;103796;1289;544962;-75
2023/10/25 02:17:48;;;;;;;11.70;8.30;;;;;;;;;;103869;1292;545192;-75
2023/10/25 02:21:37;;;;;;;12.40;8.70;;;;;;;;;;103902;1289;547881;-77
2023/10/25 02:25:09;;;;;;;11.90;8.90;;;;;;;;;;103667;1289;547979;-74
2023/10/25 02:28:40;;;;;;;11.30;8.10;;;;;;;;;;104103;1289;545354;-77
2023/10/25 02:32:18;;;;;;;11.20;7.90;;;;;;;;;;103767;1292;544829;-76
2023/10/25 02:35:52;;;;;;;13.30;8.50;;;;;;;;;;103846;1289;544832;-75
2023/10/25 02:39:37;;;;;;;13.10;8.60;;;;;;;;;;103719;1291;545569;-75
2023/10/25 02:43:12;;;;;;;11.90;8.60;;;;;;;;;;103798;1291;544959;-77
2023/10/25 02:46:50;;;;;;;13.40;9.30;;;;;;;;;;103781;1290;545047;-75
2023/10/25 02:50:23;;;;;;;12.90;8.60;;;;;;;;;;103988;1292;545490;-76
2023/10/25 02:54:06;;;;;;;12.70;9.00;;;;;;;;;;103748;1292;545382;-78
2023/10/25 02:57:44;;;;;;;12.40;8.50;;;;;;;;;;103760;1290;544928;-76
2023/10/25 03:01:27;;;;;;;12.30;8.40;;;;;;;;;;103639;1292;547829;-75
2023/10/25 03:04:59;;;;;;;10.90;8.10;;;;;;;;;;103653;1297;545038;-77
2023/10/25 03:08:36;;;;;;;12.10;8.00;;;;;;;;;;103754;1292;545932;-75
2023/10/25 03:12:19;;;;;;;11.50;8.10;;;;;;;;;;103575;1292;547918;-76
2023/10/25 03:15:51;;;;;;;11.10;7.40;;;;;;;;;;103692;1292;544817;-75
2023/10/25 03:19:29;;;;;;;12.10;7.60;;;;;;;;;;103732;1291;544833;-76
2023/10/25 03:23:06;;;;;;;10.70;7.70;;;;;;;;;;103823;1289;544705;-74
2023/10/25 03:26:44;;;;;;;12.70;8.20;;;;;;;;;;103776;1295;545038;-77
2023/10/25 03:30:21;;;;;;;10.90;7.40;;;;;;;;;;103892;1294;545626;-77
2023/10/25 03:34:05;;;;;;;11.30;7.10;;;;;;;;;;103705;1291;547914;-76
2023/10/25 03:37:39;;;;;;;9.60;6.20;;;;;;;;;;103771;1302;545822;-76
2023/10/25 03:41:10;;;;;;;8.60;5.60;;;;;;;;;;103832;1289;545032;-75
2023/10/25 03:44:53;;;;;;;8.00;5.20;;;;;;;;;;103788;1293;544929;-75
2023/10/25 03:48:31;;;;;;;8.10;4.50;;;;;;;;;;103737;1289;545606;-76
2023/10/25 03:52:07;;;;;;;7.10;4.20;;;;;;;;;;103768;1292;544887;-74
2023/10/25 03:55:52;;;;;;;7.30;4.20;;;;;;;;;;104205;1289;544791;-77
2023/10/25 03:59:28;;;;;;;6.30;3.50;;;;;;;;;;103624;1292;548119;-73
2023/10/25 04:03:06;;;;;;;6.60;3.20;;;;;;;;;;103490;1292;547921;-76
2023/10/25 04:06:38;;;;;;;6.30;3.40;;;;;;;;;;103740;1292;544969;-76
2023/10/25 04:10:20;;;;;;;6.40;3.40;;;;;;;;;;103682;1291;548313;-76
2023/10/25 04:13:58;;;;;;;5.80;3.10;;;;;;;;;;103667;1292;547821;-75
2023/10/25 04:17:30;;;;;;;6.30;2.80;;;;;;;;;;104087;1289;544842;-77
2023/10/25 04:21:08;;;;;;;5.10;2.70;;;;;;;;;;103749;1292;545002;-79
2023/10/25 04:24:51;;;;;;;5.70;2.80;;;;;;;;;;103734;1291;545047;-73
2023/10/25 04:28:29;;;;;;;5.10;2.70;;;;;;;;;;103801;1292;544973;-76
2023/10/25 04:32:02;;;;;;;5.20;2.80;;;;;;;;;;103921;1292;544906;-76
2023/10/25 04:35:45;;;;;;;5.40;2.50;;;;;;;;;;103792;1292;546212;-74
2023/10/25 04:39:22;;;;;;;4.90;2.40;;;;;;;;;;103926;1287;544906;-74
2023/10/25 04:43:00;;;;;;;4.70;2.50;;;;;;;;;;103807;1291;545256;-75
2023/10/25 04:46:43;;;;;;;6.00;2.30;;;;;;;;;;103682;1291;548043;-76
2023/10/25 04:50:15;;;;;;;4.30;2.30;;;;;;;;;;103784;1292;545815;-74
2023/10/25 04:53:52;;;;;;;4.60;2.10;;;;;;;;;;103816;1291;544866;-75
2023/10/25 04:57:35;;;;;;;5.20;2.00;;;;;;;;;;103846;1291;548005;-77
2023/10/25 05:01:14;;;;;;;4.00;1.80;;;;;;;;;;103608;1293;548057;-75
2023/10/25 05:04:45;;;;;;;4.60;2.00;;;;;;;;;;103831;1289;545770;-75
2023/10/25 05:08:22;;;;;;;4.00;1.80;;;;;;;;;;103762;1292;544920;-75
2023/10/25 05:12:04;;;;;;;4.00;1.60;;;;;;;;;;103769;1294;545014;-77
2023/10/25 05:15:35;;;;;;;3.90;1.90;;;;;;;;;;103932;1289;545687;-74
2023/10/25 05:19:19;;;;;;;4.70;2.20;;;;;;;;;;103797;1293;545539;-79
2023/10/25 05:22:58;;;;;;;5.20;2.00;;;;;;;;;;103761;1292;544784;-76
2023/10/25 05:26:34;;;;;;;5.30;2.30;;;;;;;;;;103773;1289;545409;-77
2023/10/25 05:30:15;;;;;;;5.30;2.50;;;;;;;;;;103829;1289;544757;-78
2023/10/25 05:33:49;;;;;;;5.30;2.60;;;;;;;;;;104179;1286;545028;-76
2023/10/25 05:37:27;;;;;;;5.10;2.60;;;;;;;;;;104011;1288;544970;-79
2023/10/25 05:41:04;;;;;;;5.10;2.60;;;;;;;;;;103983;1297;544839;-80
2023/10/25 05:44:41;;;;;;;6.00;2.80;;;;;;;;;;103799;1289;545465;-78
2023/10/25 05:48:19;;;;;;;5.80;3.20;;;;;;;;;;103756;1290;545029;-79
2023/10/25 05:52:02;;;;;;;6.10;3.50;;;;;;;;;;103491;1292;548054;-73
2023/10/25 05:55:34;;;;;;;6.90;3.90;;;;;;;;;;103755;1292;545542;-76
2023/10/25 05:59:11;;;;;;;7.80;3.90;;;;;;;;;;103720;1294;545086;-75
2023/10/25 06:02:49;;;;;;;6.50;3.70;;;;;;;;;;103822;1301;545671;-77
2023/10/25 06:06:26;;;;;;;8.20;4.40;;;;;;;;;;103746;1291;545770;-74
2023/10/25 06:10:03;;;;;;;7.50;3.90;;;;;;;;;;103825;1290;545344;-76
2023/10/25 06:13:40;;;;;;;7.40;4.10;;;;;;;;;;103770;1289;545648;-76
2023/10/25 06:17:18;;;;;;;8.60;4.30;;;;;;;;;;103785;1289;545319;-77
2023/10/25 06:20:56;;;;;;;7.80;5.00;;;;;;;;;;103744;1292;545802;-77
2023/10/25 06:24:33;;;;;;;8.30;4.90;;;;;;;;;;103817;1292;544946;-76
2023/10/25 06:28:16;;;;;;;9.90;4.80;;;;;;;;;;103647;1292;547945;-83
2023/10/25 06:31:50;;;;;;;8.10;4.80;;;;;;;;;;103884;1288;545020;-77
2023/10/25 06:35:26;;;;;;;8.30;4.10;;;;;;;;;;103786;1292;545675;-75
2023/10/25 06:39:05;;;;;;;8.00;4.00;;;;;;;;;;104276;1289;545088;-74
2023/10/25 06:42:41;;;;;;;6.90;4.10;;;;;;;;;;104377;1283;545917;-78
2023/10/25 06:46:20;;;;;;;6.80;4.40;;;;;;;;;;103756;1289;544993;-76
2023/10/25 06:49:56;;;;;;;7.50;4.00;;;;;;;;;;103743;1292;545936;-77
2023/10/25 06:53:39;;;;;;;7.50;4.00;;;;;;;;;;104007;1285;548232;-77
2023/10/25 06:57:11;;;;;;;7.90;3.40;;;;;;;;;;103742;1291;545691;-76
2023/10/25 07:00:55;;;;;;;8.50;4.40;;;;;;;;;;103609;1292;547812;-76
2023/10/25 07:04:27;;;;;;;7.70;3.90;;;;;;;;;;103696;1291;544947;-75
2023/10/25 07:08:02;;;;;;;7.90;3.20;;;;;;;;;;103812;1292;545571;-78
2023/10/25 07:11:40;;;;;;;9.40;4.30;;;;;;;;;;103743;1292;545504;-78
2023/10/25 07:15:18;;;;;;;6.10;3.40;;;;;;;;;;103770;1292;544769;-79
2023/10/25 07:19:01;;;;;;;6.00;3.20;;;;;;;;;;103521;1292;548101;-77
2023/10/25 07:22:29;;;;;;;7.00;3.30;;;;;;;;;;103760;1289;544833;-77
2023/10/25 07:26:10;;;;;;;7.50;3.70;;;;;;;;;;103894;1292;545963;-76
2023/10/25 07:29:48;;;;;;;7.50;3.30;;;;;;;;;;103780;1292;545076;-76
2023/10/25 07:33:31;;;;;;;8.10;3.70;;;;;;;;;;103657;1290;547770;-75
2023/10/25 07:37:03;;;;;;;6.60;3.60;;;;;;;;;;103864;1291;545386;-76
2023/10/25 07:40:40;;;;;;;7.30;3.30;;;;;;;;;;104045;1289;545446;-78
2023/10/25 07:44:17;;;;;;;6.20;3.30;;;;;;;;;;103831;1292;544930;-76
2023/10/25 07:47:55;;;;;;;6.50;3.30;;;;;;;;;;103767;1292;545054;-76
2023/10/25 07:51:32;;;;;;;6.40;3.00;;;;;;;;;;103829;1289;545663;-76
2023/10/25 07:55:10;;;;;;;6.40;2.90;;;;;;;;;;103512;1295;544818;-79
2023/10/25 07:58:47;;;;;;;8.30;3.10;;;;;;;;;;103740;1292;544802;-77
2023/10/25 08:02:25;;;;;;;9.00;3.80;;;;;;;;;;103809;1292;545047;-79
2023/10/25 08:06:09;;;;;;;7.90;3.60;;;;;;;;;;103603;1290;548036;-77
2023/10/25 08:09:42;;;;;;;7.20;3.40;;;;;;;;;;103750;1289;545831;-77
2023/10/25 08:13:17;;;;;;;9.70;3.60;;;;;;;;;;103742;1292;544807;-78
2023/10/25 08:16:55;;;;;;;6.80;2.90;;;;;;;;;;103814;1291;545437;-75
2023/10/25 08:20:36;;;;;;;5.50;2.60;;;;;;;;;;103731;1289;545952;-76
2023/10/25 08:24:10;;;;;;;4.80;2.10;;;;;;;;;;103790;1292;544928;-78
2023/10/25 08:28:06;;;;;;;4.30;2.00;;;;;;;;;;103693;1294;545746;-76
2023/10/25 08:31:24;;;;;;;5.30;2.20;;;;;;;;;;103760;1292;544970;-77
2023/10/25 08:35:02;;;;;;;5.00;2.20;;;;;;;;;;103749;1291;545549;-76
2023/10/25 08:38:39;;;;;;;6.80;2.50;;;;;;;;;;104063;1287;545418;-76
2023/10/25 08:42:17;;;;;;;5.40;2.30;;;;;;;;;;103754;1292;545501;-75
2023/10/25 08:45:56;;;;;;;14.10;3.40;;;;;;;;;;103845;1292;545737;-76
2023/10/25 08:49:31;;;;;;;14.40;3.50;;;;;;;;;;103996;1286;545051;-77
2023/10/25 08:53:20;;;;;;;40.40;6.80;;;;;;;;;;103595;1291;548287;-75
2023/10/25 08:56:52;;;;;;;11.10;3.40;;;;;;;;;;103266;1294;548003;-76
2023/10/25 09:00:28;;;;;;;29.80;5.90;;;;;;;;;;103766;1296;545192;-76
2023/10/25 09:04:05;;;;;;;16.20;4.10;;;;;;;;;;104048;1287;545096;-76
2023/10/25 09:07:39;;;;;;;16.80;4.90;;;;;;;;;;104127;1285;545526;-77
2023/10/25 09:11:13;;;;;;;10.90;3.80;;;;;;;;;;103826;1290;545059;-76
2023/10/25 09:14:54;;;;;;;11.70;4.80;;;;;;;;;;103728;1291;545004;-76
2023/10/25 09:18:33;;;;;;;15.30;4.30;;;;;;;;;;103803;1291;545037;-75
2023/10/25 09:22:19;;;;;;;10.40;3.10;;;;;;;;;;103857;1289;544860;-76
2023/10/25 09:25:46;;;;;;;15.10;4.40;;;;;;;;;;103752;1291;545668;-75
2023/10/25 09:29:25;;;;;;;9.40;2.70;;;;;;;;;;103867;1294;544966;-76
2023/10/25 09:33:04;;;;;;;27.50;4.80;;;;;;;;;;103663;1293;545743;-75
2023/10/25 09:36:39;;;;;;;8.50;3.50;;;;;;;;;;103663;1292;544806;-76
2023/10/25 09:40:17;;;;;;;21.00;4.60;;;;;;;;;;103758;1301;545280;-75
2023/10/25 09:43:58;;;;;;;20.80;4.70;;;;;;;;;;103783;1292;545324;-77
2023/10/25 09:47:35;;;;;;;6.80;2.80;;;;;;;;;;103772;1291;546098;-75
2023/10/25 09:51:14;;;;;;;7.10;2.40;;;;;;;;;;103964;1292;545055;-75
2023/10/25 09:54:47;;;;;;;6.20;2.70;;;;;;;;;;103673;1294;544976;-75
2023/10/25 09:58:33;;;;;;;9.60;2.50;;;;;;;;;;103612;1291;548237;-76
2023/10/25 10:02:02;;;;;;;5.10;2.40;;;;;;;;;;103719;1292;545109;-76
2023/10/25 10:05:49;;;;;;;7.40;2.80;;;;;;;;;;103968;1289;545403;-77
2023/10/25 10:09:21;;;;;;;18.00;4.00;;;;;;;;;;103736;1289;545512;-76
2023/10/25 10:12:53;;;;;;;14.00;3.10;;;;;;;;;;103985;1289;544968;-80
2023/10/25 10:16:31;;;;;;;15.80;3.80;;;;;;;;;;103793;1294;545961;-75
2023/10/25 10:20:21;;;;;;;9.70;2.70;;;;;;;;;;103723;1292;545593;-76
2023/10/25 10:23:51;;;;;;;8.10;2.70;;;;;;;;;;103700;1295;544769;-77
2023/10/25 10:27:25;;;;;;;52.00;6.90;;;;;;;;;;103827;1292;545260;-77
2023/10/25 10:31:07;;;;;;;22.40;4.40;;;;;;;;;;103649;1291;548079;-76
2023/10/25 10:34:44;;;;;;;6.30;2.20;;;;;;;;;;103236;1294;547847;-76
2023/10/25 10:38:16;;;;;;;7.00;2.70;;;;;;;;;;103496;1298;544803;-76
2023/10/25 10:42:00;;;;;;;6.70;2.60;;;;;;;;;;103936;1289;545426;-77
2023/10/25 10:45:31;;;;;;;9.10;3.10;;;;;;;;;;103775;1289;545614;-76
2023/10/25 10:49:10;;;;;;;6.80;2.70;;;;;;;;;;103936;1289;545669;-77
2023/10/25 10:52:52;;;;;;;7.70;2.60;;;;;;;;;;103526;1294;547863;-78
2023/10/25 10:56:25;;;;;;;7.20;2.20;;;;;;;;;;103708;1289;547841;-76
2023/10/25 11:00:01;;;;;;;10.10;2.60;;;;;;;;;;103765;1288;544849;-76
2023/10/25 11:03:38;;;;;;;9.70;3.00;;;;;;;;;;104041;1292;545414;-76
2023/10/25 11:07:21;;;;;;;5.10;2.10;;;;;;;;;;103516;1291;548283;-79
2023/10/25 11:10:54;;;;;;;19.20;3.20;;;;;;;;;;103769;1291;544805;-76
2023/10/25 11:14:39;;;;;;;5.20;1.90;;;;;;;;;;103801;1291;544880;-80
2023/10/25 11:18:08;;;;;;;4.40;2.00;;;;;;;;;;103802;1291;545241;-76
2023/10/25 11:21:45;;;;;;;5.40;2.20;;;;;;;;;;103891;1288;544937;-77
2023/10/25 11:25:29;;;;;;;4.00;2.20;;;;;;;;;;103682;1302;548196;-76
2023/10/25 11:29:00;;;;;;;11.80;2.70;;;;;;;;;;103837;1292;544923;-78
2023/10/25 11:32:37;;;;;;;4.60;2.00;;;;;;;;;;104050;1289;544989;-76
2023/10/25 11:36:16;;;;;;;4.50;1.80;;;;;;;;;;103704;1292;546067;-76
2023/10/25 11:40:01;;;;;;;6.80;2.10;;;;;;;;;;103730;1295;545057;-77
2023/10/25 11:43:27;;;;;;;5.40;3.10;;;;;;;;;;104026;1294;544995;-75
2023/10/25 11:47:16;;;;;;;5.20;2.60;;;;;;;;;;103784;1289;547893;-76
2023/10/25 11:50:46;;;;;;;4.60;1.40;;;;;;;;;;103752;1292;545738;-80
2023/10/25 11:54:22;;;;;;;4.20;1.70;;;;;;;;;;103714;1291;544957;-75
2023/10/25 11:57:56;;;;;;;5.30;2.30;;;;;;;;;;103792;1295;544816;-76
2023/10/25 12:01:39;;;;;;;6.10;2.40;;;;;;;;;;103929;1289;545450;-76
2023/10/25 12:05:17;;;;;;;4.70;1.90;;;;;;;;;;103789;1295;544862;-76
2023/10/25 12:08:54;;;;;;;5.30;1.50;;;;;;;;;;103696;1291;545765;-75
2023/10/25 12:12:28;;;;;;;3.60;1.50;;;;;;;;;;104438;1283;545467;-76
2023/10/25 12:16:09;;;;;;;4.30;1.70;;;;;;;;;;103896;1292;545118;-76
2023/10/25 12:19:43;;;;;;;3.00;1.50;;;;;;;;;;103655;1292;544925;-75
2023/10/25 12:23:24;;;;;;;6.90;1.70;;;;;;;;;;103781;1293;545438;-75
2023/10/25 12:27:01;;;;;;;7.70;1.70;;;;;;;;;;103690;1292;545414;-76
2023/10/25 12:30:39;;;;;;;4.50;1.60;;;;;;;;;;103831;1292;544741;-76
2023/10/25 12:34:16;;;;;;;5.30;1.50;;;;;;;;;;103938;1292;545457;-77
2023/10/25 12:37:54;;;;;;;3.20;1.30;;;;;;;;;;104310;1289;545242;-76
2023/10/25 12:41:32;;;;;;;3.50;1.30;;;;;;;;;;103784;1291;544789;-77
2023/10/25 12:45:14;;;;;;;12.90;3.20;;;;;;;;;;103782;1292;546196;-77
2023/10/25 12:48:46;;;;;;;12.10;3.20;;;;;;;;;;103721;1290;544935;-77
2023/10/25 12:52:23;;;;;;;18.60;3.30;;;;;;;;;;103870;1291;544902;-76
2023/10/25 12:56:01;;;;;;;5.80;2.30;;;;;;;;;;103660;1291;545211;-77
2023/10/25 12:59:39;;;;;;;10.90;3.00;;;;;;;;;;103719;1289;544968;-76
2023/10/25 13:03:16;;;;;;;8.50;2.50;;;;;;;;;;104153;1286;545042;-76
2023/10/25 13:06:54;;;;;;;8.40;2.30;;;;;;;;;;103785;1291;544983;-76
2023/10/25 13:10:31;;;;;;;7.20;2.30;;;;;;;;;;103691;1295;544941;-76
2023/10/25 13:14:08;;;;;;;6.60;2.30;;;;;;;;;;103764;1290;545587;-77
2023/10/25 13:17:46;;;;;;;5.60;2.00;;;;;;;;;;103779;1289;545119;-75
2023/10/25 13:21:23;;;;;;;20.40;4.50;;;;;;;;;;103784;1289;544769;-76
2023/10/25 13:25:01;;;;;;;9.00;2.30;;;;;;;;;;103790;1290;544991;-76
2023/10/25 13:28:44;;;;;;;6.90;2.70;;;;;;;;;;103636;1289;548148;-78
2023/10/25 13:32:16;;;;;;;6.00;2.70;;;;;;;;;;103783;1289;545169;-76
2023/10/25 13:35:59;;;;;;;5.50;2.40;;;;;;;;;;103618;1292;547798;-76
2023/10/25 13:39:32;;;;;;;7.50;2.30;;;;;;;;;;103774;1294;545369;-76
2023/10/25 13:43:10;;;;;;;8.90;3.00;;;;;;;;;;103834;1292;544792;-77
2023/10/25 13:46:45;;;;;;;9.60;4.40;;;;;;;;;;103758;1291;545271;-76
2023/10/25 13:50:23;;;;;;;7.60;3.30;;;;;;;;;;103701;1293;544858;-76
2023/10/25 13:54:00;;;;;;;7.90;3.40;;;;;;;;;;103952;1288;545215;-76
2023/10/25 13:57:38;;;;;;;9.50;5.00;;;;;;;;;;103806;1291;544779;-75
2023/10/25 14:01:15;;;;;;;9.40;4.90;;;;;;;;;;103780;1291;545348;-76
2023/10/25 14:04:53;;;;;;;6.80;2.80;;;;;;;;;;103688;1289;545103;-75
2023/10/25 14:08:31;;;;;;;8.30;2.40;;;;;;;;;;104034;1291;545635;-76
2023/10/25 14:12:08;;;;;;;6.40;2.30;;;;;;;;;;103843;1291;545556;-76
2023/10/25 14:15:46;;;;;;;8.50;3.00;;;;;;;;;;103696;1298;545188;-75
2023/10/25 14:19:23;;;;;;;8.50;3.20;;;;;;;;;;103854;1292;545030;-79
2023/10/25 14:23:00;;;;;;;7.60;3.10;;;;;;;;;;103722;1289;544773;-78
2023/10/25 14:26:40;;;;;;;9.60;3.60;;;;;;;;;;103733;1290;545857;-79
2023/10/25 14:30:21;;;;;;;7.80;2.80;;;;;;;;;;103606;1303;545588;-78
2023/10/25 14:33:52;;;;;;;4.40;1.90;;;;;;;;;;103850;1289;545655;-79
2023/10/25 14:37:36;;;;;;;8.20;3.60;;;;;;;;;;103746;1292;547914;-77
2023/10/25 14:41:10;;;;;;;8.00;3.00;;;;;;;;;;103623;1292;547977;-76
2023/10/25 14:44:45;;;;;;;8.30;3.70;;;;;;;;;;104170;1285;544803;-77
2023/10/25 14:48:23;;;;;;;8.80;4.80;;;;;;;;;;103740;1291;544803;-76
2023/10/25 14:51:56;;;;;;;10.20;5.50;;;;;;;;;;103854;1295;545475;-78
2023/10/25 14:55:45;;;;;;;12.90;7.40;;;;;;;;;;103586;1292;548433;-77
2023/10/25 14:59:15;;;;;;;13.00;7.20;;;;;;;;;;103825;1292;544932;-82
2023/10/25 15:02:54;;;;;;;14.80;9.30;;;;;;;;;;103609;1292;547789;-78
2023/10/25 15:06:30;;;;;;;17.40;10.20;;;;;;;;;;103771;1292;545166;-78
2023/10/25 15:10:08;;;;;;;19.60;11.00;;;;;;;;;;103722;1294;545516;-77
2023/10/25 15:13:44;;;;;;;51.30;27.20;;;;;;;;;;103700;1292;544847;-77
2023/10/25 15:17:28;;;;;;;104.60;56.80;;;;;;;;;;104117;1285;548123;-78
2023/10/25 15:21:00;;;;;;;95.40;55.30;;;;;;;;;;103727;1294;544866;-78
2023/10/25 15:24:45;;;;;;;97.20;56.60;;;;;;;;;;103895;1288;547978;-77
2023/10/25 15:28:20;;;;;;;52.50;32.80;;;;;;;;;;103751;1292;545388;-78
2023/10/25 15:31:58;;;;;;;26.30;15.20;;;;;;;;;;103453;1301;548309;-78
2023/10/25 15:35:29;;;;;;;21.10;12.10;;;;;;;;;;103906;1289;544818;-78
2023/10/25 15:39:09;;;;;;;18.60;10.00;;;;;;;;;;103843;1293;547908;-82
2023/10/25 15:42:44;;;;;;;17.20;10.70;;;;;;;;;;103750;1290;544739;-78
2023/10/25 15:46:23;;;;;;;19.90;12.30;;;;;;;;;;103972;1292;545688;-77
2023/10/25 15:49:59;;;;;;;27.60;17.90;;;;;;;;;;103745;1292;544792;-80
2023/10/25 15:53:43;;;;;;;26.50;18.40;;;;;;;;;;103634;1294;548015;-77
2023/10/25 15:57:20;;;;;;;24.80;17.60;;;;;;;;;;103555;1295;547843;-78
2023/10/25 16:00:57;;;;;;;24.70;16.90;;;;;;;;;;103736;1288;547975;-77
2023/10/25 16:04:35;;;;;;;37.60;24.40;;;;;;;;;;103463;1292;545875;-77
2023/10/25 16:08:14;;;;;;;44.10;26.80;;;;;;;;;;103729;1288;548570;-77
2023/10/25 16:11:50;;;;;;;64.50;36.60;;;;;;;;;;103352;1294;547994;-77
2023/10/25 16:15:21;;;;;;;83.30;43.80;;;;;;;;;;103734;1290;545837;-77
2023/10/25 16:19:04;;;;;;;80.40;43.80;;;;;;;;;;103290;1295;548039;-79
2023/10/25 16:22:44;;;;;;;64.70;36.90;;;;;;;;;;103708;1291;548054;-79
2023/10/25 16:26:20;;;;;;;48.40;27.70;;;;;;;;;;103559;1292;548444;-77
2023/10/25 16:29:51;;;;;;;38.60;23.80;;;;;;;;;;103706;1293;544973;-77
2023/10/25 16:33:30;;;;;;;40.90;23.70;;;;;;;;;;103796;1292;545686;-77
2023/10/25 16:37:07;;;;;;;42.50;24.90;;;;;;;;;;103955;1292;545007;-76
2023/10/25 16:40:44;;;;;;;40.30;25.50;;;;;;;;;;103720;1289;545158;-77
2023/10/25 16:44:22;;;;;;;40.00;26.30;;;;;;;;;;103831;1292;545671;-82
2023/10/25 16:47:59;;;;;;;71.60;50.30;;;;;;;;;;103803;1289;545020;-77
2023/10/25 16:51:36;;;;;;;159.60;107.10;;;;;;;;;;103480;1294;545129;-79
2023/10/25 16:55:14;;;;;;;178.80;125.90;;;;;;;;;;103682;1289;545048;-78
2023/10/25 16:58:47;;;;;;;162.40;121.50;;;;;;;;;;103867;1289;545531;-77
2023/10/25 17:02:31;;;;;;;127.00;97.70;;;;;;;;;;103837;1291;544774;-77
2023/10/25 17:06:08;;;;;;;117.00;87.20;;;;;;;;;;103715;1289;545574;-76
2023/10/25 17:09:51;;;;;;;91.80;70.70;;;;;;;;;;103554;1295;548421;-80
2023/10/25 17:13:26;;;;;;;79.70;59.80;;;;;;;;;;103667;1293;544992;-78
2023/10/25 17:17:06;;;;;;;84.30;64.00;;;;;;;;;;103297;1294;548089;-77
2023/10/25 17:20:38;;;;;;;80.80;60.00;;;;;;;;;;103525;1297;545046;-77
2023/10/25 17:24:22;;;;;;;72.20;52.60;;;;;;;;;;103834;1289;548471;-77
2023/10/25 17:28:00;;;;;;;80.20;55.40;;;;;;;;;;103681;1291;548087;-76
2023/10/25 17:31:31;;;;;;;72.70;49.40;;;;;;;;;;104123;1290;544802;-76
2023/10/25 17:35:28;;;;;;;66.10;45.30;;;;;;;;;;103921;1292;548046;-77
2023/10/25 17:38:45;;;;;;;67.80;49.10;;;;;;;;;;103939;1289;545039;-77
2023/10/25 17:42:22;;;;;;;69.60;48.70;;;;;;;;;;103823;1289;545597;-78
2023/10/25 17:46:00;;;;;;;61.00;42.50;;;;;;;;;;104395;1285;545211;-78
2023/10/25 17:49:34;;;;;;;57.20;41.10;;;;;;;;;;104152;1286;545994;-77
2023/10/25 17:53:15;;;;;;;53.50;40.30;;;;;;;;;;103826;1292;545140;-77
2023/10/25 17:56:58;;;;;;;55.50;39.30;;;;;;;;;;104049;1289;547852;-77
2023/10/25 18:00:30;;;;;;;55.30;39.80;;;;;;;;;;103778;1292;544776;-79
2023/10/25 18:04:16;;;;;;;63.60;41.70;;;;;;;;;;103676;1292;548018;-78
2023/10/25 18:07:51;;;;;;;57.90;37.50;;;;;;;;;;103663;1292;547839;-77
2023/10/25 18:11:24;;;;;;;54.80;37.30;;;;;;;;;;103685;1291;545228;-77
2023/10/25 18:15:00;;;;;;;55.20;37.00;;;;;;;;;;103769;1293;545118;-78
2023/10/25 18:18:43;;;;;;;52.00;36.60;;;;;;;;;;103321;1294;547857;-77
2023/10/25 18:22:40;;;;;;;55.20;38.20;;;;;;;;;;103663;1291;546028;-77
2023/10/25 18:25:58;;;;;;;46.30;32.90;;;;;;;;;;103712;1292;546171;-82
2023/10/25 18:29:26;;;;;;;47.20;31.40;;;;;;;;;;103792;1291;544860;-79
2023/10/25 18:33:18;;;;;;;47.20;33.30;;;;;;;;;;103613;1293;547777;-80
2023/10/25 18:36:45;;;;;;;49.30;34.20;;;;;;;;;;104004;1289;544861;-78
2023/10/25 18:40:22;;;;;;;51.20;35.90;;;;;;;;;;103689;1295;545043;-77
2023/10/25 18:43:59;;;;;;;48.60;33.90;;;;;;;;;;104180;1293;545466;-77
2023/10/25 18:47:42;;;;;;;50.40;34.40;;;;;;;;;;103371;1294;548095;-82
2023/10/25 18:51:14;;;;;;;51.30;33.90;;;;;;;;;;103781;1295;545090;-77
2023/10/25 18:54:55;;;;;;;49.30;34.20;;;;;;;;;;103688;1290;544965;-79
2023/10/25 18:58:35;;;;;;;45.20;31.30;;;;;;;;;;103825;1289;548106;-82
2023/10/25 19:02:07;;;;;;;48.80;33.90;;;;;;;;;;103738;1289;544913;-79
2023/10/25 19:05:45;;;;;;;48.30;33.60;;;;;;;;;;103767;1289;545584;-77
2023/10/25 19:09:21;;;;;;;47.30;34.30;;;;;;;;;;103737;1291;544750;-81
2023/10/25 19:12:59;;;;;;;46.90;32.40;;;;;;;;;;104146;1286;544963;-77
2023/10/25 19:16:39;;;;;;;42.00;30.10;;;;;;;;;;103696;1291;545007;-77
2023/10/25 19:20:20;;;;;;;45.80;32.60;;;;;;;;;;103587;1295;547919;-77
2023/10/25 19:23:56;;;;;;;47.90;35.20;;;;;;;;;;103709;1292;545330;-77
2023/10/25 19:27:29;;;;;;;50.50;34.70;;;;;;;;;;103719;1290;544960;-77
2023/10/25 19:31:30;;;;;;;48.20;33.40;;;;;;;;;;103616;1294;546150;-84
2023/10/25 19:35:06;;;;;;;51.40;34.60;;;;;;;;;;103725;1292;547825;-83
2023/10/25 19:38:27;;;;;;;71.70;48.30;;;;;;;;;;103599;1290;546302;-78
2023/10/25 19:41:59;;;;;;;80.10;51.80;;;;;;;;;;103706;1292;545400;-77
2023/10/25 19:45:43;;;;;;;76.40;51.50;;;;;;;;;;103633;1291;548249;-79
2023/10/25 19:49:19;;;;;;;92.80;58.00;;;;;;;;;;103634;1290;547801;-81
2023/10/25 19:52:47;;;;;;;82.50;53.70;;;;;;;;;;103652;1295;544792;-77
2023/10/25 19:56:53;;;;;;;78.70;51.40;;;;;;;;;;103563;1302;547821;-77
2023/10/25 20:00:08;;;;;;;80.50;53.10;;;;;;;;;;103707;1289;545731;-77
2023/10/25 20:03:51;;;;;;;77.10;51.80;;;;;;;;;;103625;1292;547801;-82
2023/10/25 20:07:29;;;;;;;67.40;47.20;;;;;;;;;;103748;1292;547795;-82
2023/10/25 20:11:00;;;;;;;61.40;43.10;;;;;;;;;;103717;1292;545459;-77
2023/10/25 20:14:43;;;;;;;56.30;37.40;;;;;;;;;;103423;1292;548221;-77
2023/10/25 20:18:20;;;;;;;54.30;37.50;;;;;;;;;;103665;1292;548396;-77
2023/10/25 20:21:56;;;;;;;55.80;38.70;;;;;;;;;;103867;1292;545485;-77
2023/10/25 20:25:29;;;;;;;46.90;33.00;;;;;;;;;;103715;1293;544932;-77
2023/10/25 20:29:13;;;;;;;48.00;35.00;;;;;;;;;;103496;1291;547841;-77
2023/10/25 20:32:44;;;;;;;44.90;33.10;;;;;;;;;;103755;1294;545847;-77
2023/10/25 20:36:22;;;;;;;41.80;30.80;;;;;;;;;;103890;1292;544835;-77
2023/10/25 20:40:00;;;;;;;46.90;33.10;;;;;;;;;;103976;1289;544807;-77
2023/10/25 20:43:38;;;;;;;49.10;34.80;;;;;;;;;;103758;1289;544890;-77
2023/10/25 20:47:14;;;;;;;47.90;32.10;;;;;;;;;;103938;1292;545047;-78